Alhambra, Illinois
Current Conditions -  °F | °C
As of 11:45 AM on Thursday 29 Jan 2015 (Local Time) from KALN Reporting Station
Overcast Overcast  
Wind Chill: 31°   Ceiling: 2400
Heat Index: 39°   Visibility: 10mi
Dew Point: 30°   Wind: 15mph
Humidity: 70%   Direction: 310°NW
Pressure: 30.13"   Gusts: 23mph
Location:  38.89°N, 89.73°W
Report Text: KALN 291745Z 31013G20KT 10SM OVC024 04/M01 A3013
Loading
Personal Weather Stations






























Interactive Weather Map New forecast layout! Learn more

10-Day Weather Forecast

Advertisements
Track Severe Weather on mobile